<?xml version="1.0" encoding="UTF-8" standalone="no" ?>
<gpx xmlns="http://www.topografix.com/GPX/1/1" xmlns:xsi="http://www.w3.org/2001/XMLSchema-instance" xsi:schemaLocation="http://www.topografix.com/GPX/1/1 http://www.topografix.com/GPX/1/1/gpx.xsd" version="1.1" creator="VisuGPX - https://www.visugpx.com">
  <metadata>
    <name>Village préhistorique de Cambous</name>
  </metadata>
  <trk>
    <name><![CDATA[Village préhistorique de Cambous]]></name>
    <trkseg>
      <trkpt lat="43.7512" lon="3.71741">
        <ele>244</ele>
        <time>2019-11-01T20:42:04+01:00</time>
      </trkpt>
      <trkpt lat="43.75125" lon="3.71747">
        <ele>244</ele>
        <time>2019-11-01T20:42:09+01:00</time>
      </trkpt>
      <trkpt lat="43.75132" lon="3.71751">
        <ele>244</ele>
        <time>2019-11-01T20:42:14+01:00</time>
      </trkpt>
      <trkpt lat="43.75141" lon="3.71753">
        <ele>245</ele>
        <time>2019-11-01T20:42:19+01:00</time>
      </trkpt>
      <trkpt lat="43.75149" lon="3.71754">
        <ele>246</ele>
        <time>2019-11-01T20:42:24+01:00</time>
      </trkpt>
      <trkpt lat="43.75159" lon="3.71758">
        <ele>246</ele>
        <time>2019-11-01T20:42:29+01:00</time>
      </trkpt>
      <trkpt lat="43.75163" lon="3.71769">
        <ele>247</ele>
        <time>2019-11-01T20:42:34+01:00</time>
      </trkpt>
      <trkpt lat="43.75172" lon="3.7178">
        <ele>247</ele>
        <time>2019-11-01T20:42:39+01:00</time>
      </trkpt>
      <trkpt lat="43.75193" lon="3.71799">
        <ele>250</ele>
        <time>2019-11-01T20:42:44+01:00</time>
      </trkpt>
      <trkpt lat="43.75207" lon="3.71814">
        <ele>250</ele>
        <time>2019-11-01T20:42:49+01:00</time>
      </trkpt>
      <trkpt lat="43.75238" lon="3.71853">
        <ele>249</ele>
        <time>2019-11-01T20:42:54+01:00</time>
      </trkpt>
      <trkpt lat="43.75231" lon="3.7189">
        <ele>246</ele>
        <time>2019-11-01T20:42:59+01:00</time>
      </trkpt>
      <trkpt lat="43.75233" lon="3.71943">
        <ele>245</ele>
        <time>2019-11-01T20:43:04+01:00</time>
      </trkpt>
      <trkpt lat="43.75238" lon="3.71959">
        <ele>245</ele>
        <time>2019-11-01T20:43:09+01:00</time>
      </trkpt>
      <trkpt lat="43.75256" lon="3.71977">
        <ele>245</ele>
        <time>2019-11-01T20:43:14+01:00</time>
      </trkpt>
      <trkpt lat="43.75277" lon="3.71995">
        <ele>244</ele>
        <time>2019-11-01T20:43:19+01:00</time>
      </trkpt>
      <trkpt lat="43.75283" lon="3.72015">
        <ele>242</ele>
        <time>2019-11-01T20:43:24+01:00</time>
      </trkpt>
      <trkpt lat="43.75291" lon="3.72025">
        <ele>241</ele>
        <time>2019-11-01T20:43:29+01:00</time>
      </trkpt>
      <trkpt lat="43.75301" lon="3.72031">
        <ele>240</ele>
        <time>2019-11-01T20:43:34+01:00</time>
      </trkpt>
      <trkpt lat="43.75325" lon="3.72042">
        <ele>241</ele>
        <time>2019-11-01T20:43:39+01:00</time>
      </trkpt>
      <trkpt lat="43.75335" lon="3.72046">
        <ele>241</ele>
        <time>2019-11-01T20:43:44+01:00</time>
      </trkpt>
      <trkpt lat="43.75353" lon="3.72031">
        <ele>243</ele>
        <time>2019-11-01T20:43:49+01:00</time>
      </trkpt>
      <trkpt lat="43.75363" lon="3.72022">
        <ele>244</ele>
        <time>2019-11-01T20:43:54+01:00</time>
      </trkpt>
      <trkpt lat="43.75368" lon="3.72014">
        <ele>245</ele>
        <time>2019-11-01T20:43:59+01:00</time>
      </trkpt>
      <trkpt lat="43.7537" lon="3.72003">
        <ele>245</ele>
        <time>2019-11-01T20:44:04+01:00</time>
      </trkpt>
      <trkpt lat="43.75394" lon="3.71978">
        <ele>245</ele>
        <time>2019-11-01T20:44:09+01:00</time>
      </trkpt>
      <trkpt lat="43.75394" lon="3.71987">
        <ele>245</ele>
        <time>2019-11-01T20:44:14+01:00</time>
      </trkpt>
      <trkpt lat="43.75392" lon="3.72003">
        <ele>245</ele>
        <time>2019-11-01T20:44:19+01:00</time>
      </trkpt>
      <trkpt lat="43.75393" lon="3.72027">
        <ele>245</ele>
        <time>2019-11-01T20:44:24+01:00</time>
      </trkpt>
      <trkpt lat="43.75406" lon="3.72078">
        <ele>245</ele>
        <time>2019-11-01T20:44:29+01:00</time>
      </trkpt>
      <trkpt lat="43.75404" lon="3.72098">
        <ele>245</ele>
        <time>2019-11-01T20:44:34+01:00</time>
      </trkpt>
      <trkpt lat="43.75403" lon="3.7212">
        <ele>246</ele>
        <time>2019-11-01T20:44:39+01:00</time>
      </trkpt>
      <trkpt lat="43.75411" lon="3.72143">
        <ele>246</ele>
        <time>2019-11-01T20:44:44+01:00</time>
      </trkpt>
      <trkpt lat="43.75439" lon="3.72184">
        <ele>247</ele>
        <time>2019-11-01T20:44:49+01:00</time>
      </trkpt>
      <trkpt lat="43.75446" lon="3.72201">
        <ele>247</ele>
        <time>2019-11-01T20:44:54+01:00</time>
      </trkpt>
      <trkpt lat="43.75448" lon="3.72233">
        <ele>247</ele>
        <time>2019-11-01T20:44:59+01:00</time>
      </trkpt>
      <trkpt lat="43.75455" lon="3.72244">
        <ele>247</ele>
        <time>2019-11-01T20:45:04+01:00</time>
      </trkpt>
      <trkpt lat="43.75464" lon="3.72257">
        <ele>247</ele>
        <time>2019-11-01T20:45:09+01:00</time>
      </trkpt>
      <trkpt lat="43.75474" lon="3.72279">
        <ele>247</ele>
        <time>2019-11-01T20:45:14+01:00</time>
      </trkpt>
      <trkpt lat="43.75476" lon="3.72295">
        <ele>247</ele>
        <time>2019-11-01T20:45:19+01:00</time>
      </trkpt>
      <trkpt lat="43.75453" lon="3.72661">
        <ele>255</ele>
        <time>2019-11-01T20:45:24+01:00</time>
      </trkpt>
      <trkpt lat="43.75496" lon="3.72683">
        <ele>255</ele>
        <time>2019-11-01T20:45:29+01:00</time>
      </trkpt>
      <trkpt lat="43.75514" lon="3.72717">
        <ele>255</ele>
        <time>2019-11-01T20:45:34+01:00</time>
      </trkpt>
      <trkpt lat="43.75528" lon="3.72741">
        <ele>255</ele>
        <time>2019-11-01T20:45:39+01:00</time>
      </trkpt>
      <trkpt lat="43.75544" lon="3.7277">
        <ele>255</ele>
        <time>2019-11-01T20:45:44+01:00</time>
      </trkpt>
      <trkpt lat="43.75567" lon="3.72811">
        <ele>255</ele>
        <time>2019-11-01T20:45:49+01:00</time>
      </trkpt>
      <trkpt lat="43.75587" lon="3.72871">
        <ele>255</ele>
        <time>2019-11-01T20:45:54+01:00</time>
      </trkpt>
      <trkpt lat="43.75596" lon="3.7292">
        <ele>257</ele>
        <time>2019-11-01T20:45:59+01:00</time>
      </trkpt>
      <trkpt lat="43.75597" lon="3.72945">
        <ele>258</ele>
        <time>2019-11-01T20:46:04+01:00</time>
      </trkpt>
      <trkpt lat="43.7559" lon="3.73013">
        <ele>259</ele>
        <time>2019-11-01T20:46:09+01:00</time>
      </trkpt>
      <trkpt lat="43.75589" lon="3.73036">
        <ele>260</ele>
        <time>2019-11-01T20:46:14+01:00</time>
      </trkpt>
      <trkpt lat="43.75585" lon="3.73063">
        <ele>261</ele>
        <time>2019-11-01T20:46:19+01:00</time>
      </trkpt>
      <trkpt lat="43.75585" lon="3.73099">
        <ele>262</ele>
        <time>2019-11-01T20:46:24+01:00</time>
      </trkpt>
      <trkpt lat="43.75579" lon="3.73117">
        <ele>264</ele>
        <time>2019-11-01T20:46:29+01:00</time>
      </trkpt>
      <trkpt lat="43.75578" lon="3.73139">
        <ele>265</ele>
        <time>2019-11-01T20:46:34+01:00</time>
      </trkpt>
      <trkpt lat="43.75577" lon="3.73179">
        <ele>266</ele>
        <time>2019-11-01T20:46:39+01:00</time>
      </trkpt>
      <trkpt lat="43.75579" lon="3.732">
        <ele>265</ele>
        <time>2019-11-01T20:46:44+01:00</time>
      </trkpt>
      <trkpt lat="43.75589" lon="3.73222">
        <ele>265</ele>
        <time>2019-11-01T20:46:49+01:00</time>
      </trkpt>
      <trkpt lat="43.75599" lon="3.73232">
        <ele>265</ele>
        <time>2019-11-01T20:46:54+01:00</time>
      </trkpt>
      <trkpt lat="43.75637" lon="3.73232">
        <ele>266</ele>
        <time>2019-11-01T20:46:59+01:00</time>
      </trkpt>
      <trkpt lat="43.75646" lon="3.73246">
        <ele>265</ele>
        <time>2019-11-01T20:47:04+01:00</time>
      </trkpt>
      <trkpt lat="43.75655" lon="3.73247">
        <ele>264</ele>
        <time>2019-11-01T20:47:09+01:00</time>
      </trkpt>
      <trkpt lat="43.75661" lon="3.73256">
        <ele>263</ele>
        <time>2019-11-01T20:47:14+01:00</time>
      </trkpt>
      <trkpt lat="43.75663" lon="3.73272">
        <ele>263</ele>
        <time>2019-11-01T20:47:19+01:00</time>
      </trkpt>
      <trkpt lat="43.75694" lon="3.73305">
        <ele>261</ele>
        <time>2019-11-01T20:47:24+01:00</time>
      </trkpt>
      <trkpt lat="43.75727" lon="3.73348">
        <ele>259</ele>
        <time>2019-11-01T20:47:29+01:00</time>
      </trkpt>
      <trkpt lat="43.7573" lon="3.73366">
        <ele>259</ele>
        <time>2019-11-01T20:47:34+01:00</time>
      </trkpt>
      <trkpt lat="43.75733" lon="3.73425">
        <ele>258</ele>
        <time>2019-11-01T20:47:39+01:00</time>
      </trkpt>
      <trkpt lat="43.75731" lon="3.73445">
        <ele>257</ele>
        <time>2019-11-01T20:47:44+01:00</time>
      </trkpt>
      <trkpt lat="43.75747" lon="3.734">
        <ele>258</ele>
        <time>2019-11-01T20:47:49+01:00</time>
      </trkpt>
      <trkpt lat="43.75758" lon="3.73363">
        <ele>259</ele>
        <time>2019-11-01T20:47:54+01:00</time>
      </trkpt>
      <trkpt lat="43.7578" lon="3.73327">
        <ele>260</ele>
        <time>2019-11-01T20:47:59+01:00</time>
      </trkpt>
      <trkpt lat="43.75787" lon="3.73305">
        <ele>260</ele>
        <time>2019-11-01T20:48:04+01:00</time>
      </trkpt>
      <trkpt lat="43.75791" lon="3.73287">
        <ele>260</ele>
        <time>2019-11-01T20:48:09+01:00</time>
      </trkpt>
      <trkpt lat="43.75797" lon="3.7325">
        <ele>259</ele>
        <time>2019-11-01T20:48:14+01:00</time>
      </trkpt>
      <trkpt lat="43.75826" lon="3.73222">
        <ele>258</ele>
        <time>2019-11-01T20:48:19+01:00</time>
      </trkpt>
      <trkpt lat="43.75858" lon="3.73204">
        <ele>257</ele>
        <time>2019-11-01T20:48:24+01:00</time>
      </trkpt>
      <trkpt lat="43.75872" lon="3.73202">
        <ele>257</ele>
        <time>2019-11-01T20:48:29+01:00</time>
      </trkpt>
      <trkpt lat="43.75885" lon="3.73193">
        <ele>256</ele>
        <time>2019-11-01T20:48:34+01:00</time>
      </trkpt>
      <trkpt lat="43.75911" lon="3.73191">
        <ele>255</ele>
        <time>2019-11-01T20:48:39+01:00</time>
      </trkpt>
      <trkpt lat="43.75928" lon="3.73187">
        <ele>255</ele>
        <time>2019-11-01T20:48:44+01:00</time>
      </trkpt>
      <trkpt lat="43.75957" lon="3.73158">
        <ele>255</ele>
        <time>2019-11-01T20:48:49+01:00</time>
      </trkpt>
      <trkpt lat="43.75993" lon="3.73118">
        <ele>255</ele>
        <time>2019-11-01T20:48:54+01:00</time>
      </trkpt>
      <trkpt lat="43.76023" lon="3.73097">
        <ele>255</ele>
        <time>2019-11-01T20:48:59+01:00</time>
      </trkpt>
      <trkpt lat="43.76035" lon="3.73095">
        <ele>255</ele>
        <time>2019-11-01T20:49:04+01:00</time>
      </trkpt>
      <trkpt lat="43.76051" lon="3.73095">
        <ele>255</ele>
        <time>2019-11-01T20:49:09+01:00</time>
      </trkpt>
      <trkpt lat="43.7609" lon="3.7307">
        <ele>255</ele>
        <time>2019-11-01T20:49:14+01:00</time>
      </trkpt>
      <trkpt lat="43.761" lon="3.73057">
        <ele>254</ele>
        <time>2019-11-01T20:49:19+01:00</time>
      </trkpt>
      <trkpt lat="43.76108" lon="3.73039">
        <ele>254</ele>
        <time>2019-11-01T20:49:24+01:00</time>
      </trkpt>
      <trkpt lat="43.76124" lon="3.73026">
        <ele>253</ele>
        <time>2019-11-01T20:49:29+01:00</time>
      </trkpt>
      <trkpt lat="43.76134" lon="3.73007">
        <ele>253</ele>
        <time>2019-11-01T20:49:34+01:00</time>
      </trkpt>
      <trkpt lat="43.76138" lon="3.72999">
        <ele>253</ele>
        <time>2019-11-01T20:49:39+01:00</time>
      </trkpt>
      <trkpt lat="43.76145" lon="3.72973">
        <ele>254</ele>
        <time>2019-11-01T20:49:44+01:00</time>
      </trkpt>
      <trkpt lat="43.76152" lon="3.72951">
        <ele>255</ele>
        <time>2019-11-01T20:49:49+01:00</time>
      </trkpt>
      <trkpt lat="43.76161" lon="3.72921">
        <ele>255</ele>
        <time>2019-11-01T20:49:54+01:00</time>
      </trkpt>
      <trkpt lat="43.76165" lon="3.72888">
        <ele>255</ele>
        <time>2019-11-01T20:49:59+01:00</time>
      </trkpt>
      <trkpt lat="43.7617" lon="3.72865">
        <ele>255</ele>
        <time>2019-11-01T20:50:04+01:00</time>
      </trkpt>
      <trkpt lat="43.76179" lon="3.72844">
        <ele>255</ele>
        <time>2019-11-01T20:50:09+01:00</time>
      </trkpt>
      <trkpt lat="43.76254" lon="3.72817">
        <ele>255</ele>
        <time>2019-11-01T20:50:14+01:00</time>
      </trkpt>
      <trkpt lat="43.76329" lon="3.72799">
        <ele>255</ele>
        <time>2019-11-01T20:50:19+01:00</time>
      </trkpt>
      <trkpt lat="43.76356" lon="3.72812">
        <ele>255</ele>
        <time>2019-11-01T20:50:24+01:00</time>
      </trkpt>
      <trkpt lat="43.76367" lon="3.72811">
        <ele>255</ele>
        <time>2019-11-01T20:50:29+01:00</time>
      </trkpt>
      <trkpt lat="43.76394" lon="3.72809">
        <ele>255</ele>
        <time>2019-11-01T20:50:34+01:00</time>
      </trkpt>
      <trkpt lat="43.7642" lon="3.72807">
        <ele>255</ele>
        <time>2019-11-01T20:50:39+01:00</time>
      </trkpt>
      <trkpt lat="43.76482" lon="3.72806">
        <ele>255</ele>
        <time>2019-11-01T20:50:44+01:00</time>
      </trkpt>
      <trkpt lat="43.7653" lon="3.72775">
        <ele>256</ele>
        <time>2019-11-01T20:50:49+01:00</time>
      </trkpt>
      <trkpt lat="43.76539" lon="3.72767">
        <ele>256</ele>
        <time>2019-11-01T20:50:54+01:00</time>
      </trkpt>
      <trkpt lat="43.76556" lon="3.72761">
        <ele>257</ele>
        <time>2019-11-01T20:50:59+01:00</time>
      </trkpt>
      <trkpt lat="43.7659" lon="3.72736">
        <ele>258</ele>
        <time>2019-11-01T20:51:04+01:00</time>
      </trkpt>
      <trkpt lat="43.76611" lon="3.72722">
        <ele>258</ele>
        <time>2019-11-01T20:51:09+01:00</time>
      </trkpt>
      <trkpt lat="43.76626" lon="3.72716">
        <ele>258</ele>
        <time>2019-11-01T20:51:14+01:00</time>
      </trkpt>
      <trkpt lat="43.76663" lon="3.72707">
        <ele>259</ele>
        <time>2019-11-01T20:51:19+01:00</time>
      </trkpt>
      <trkpt lat="43.76677" lon="3.72689">
        <ele>259</ele>
        <time>2019-11-01T20:51:24+01:00</time>
      </trkpt>
      <trkpt lat="43.76685" lon="3.72672">
        <ele>259</ele>
        <time>2019-11-01T20:51:29+01:00</time>
      </trkpt>
      <trkpt lat="43.76698" lon="3.72653">
        <ele>259</ele>
        <time>2019-11-01T20:51:34+01:00</time>
      </trkpt>
      <trkpt lat="43.76706" lon="3.72636">
        <ele>259</ele>
        <time>2019-11-01T20:51:39+01:00</time>
      </trkpt>
      <trkpt lat="43.76718" lon="3.72617">
        <ele>260</ele>
        <time>2019-11-01T20:51:44+01:00</time>
      </trkpt>
      <trkpt lat="43.7673" lon="3.72603">
        <ele>260</ele>
        <time>2019-11-01T20:51:49+01:00</time>
      </trkpt>
      <trkpt lat="43.76757" lon="3.72582">
        <ele>260</ele>
        <time>2019-11-01T20:51:54+01:00</time>
      </trkpt>
      <trkpt lat="43.76774" lon="3.72558">
        <ele>260</ele>
        <time>2019-11-01T20:51:59+01:00</time>
      </trkpt>
      <trkpt lat="43.76796" lon="3.72525">
        <ele>260</ele>
        <time>2019-11-01T20:52:04+01:00</time>
      </trkpt>
      <trkpt lat="43.7681" lon="3.72514">
        <ele>260</ele>
        <time>2019-11-01T20:52:09+01:00</time>
      </trkpt>
      <trkpt lat="43.76823" lon="3.72511">
        <ele>260</ele>
        <time>2019-11-01T20:52:14+01:00</time>
      </trkpt>
      <trkpt lat="43.76843" lon="3.72519">
        <ele>260</ele>
        <time>2019-11-01T20:52:19+01:00</time>
      </trkpt>
      <trkpt lat="43.7686" lon="3.7253">
        <ele>260</ele>
        <time>2019-11-01T20:52:24+01:00</time>
      </trkpt>
      <trkpt lat="43.76878" lon="3.7254">
        <ele>259</ele>
        <time>2019-11-01T20:52:29+01:00</time>
      </trkpt>
      <trkpt lat="43.769" lon="3.72547">
        <ele>258</ele>
        <time>2019-11-01T20:52:34+01:00</time>
      </trkpt>
      <trkpt lat="43.76907" lon="3.72491">
        <ele>258</ele>
        <time>2019-11-01T20:52:39+01:00</time>
      </trkpt>
      <trkpt lat="43.76907" lon="3.72479">
        <ele>258</ele>
        <time>2019-11-01T20:52:44+01:00</time>
      </trkpt>
      <trkpt lat="43.7691" lon="3.72458">
        <ele>258</ele>
        <time>2019-11-01T20:52:49+01:00</time>
      </trkpt>
      <trkpt lat="43.76912" lon="3.7241">
        <ele>258</ele>
        <time>2019-11-01T20:52:54+01:00</time>
      </trkpt>
      <trkpt lat="43.76913" lon="3.7238">
        <ele>258</ele>
        <time>2019-11-01T20:52:59+01:00</time>
      </trkpt>
      <trkpt lat="43.7691" lon="3.7234">
        <ele>259</ele>
        <time>2019-11-01T20:53:04+01:00</time>
      </trkpt>
      <trkpt lat="43.76922" lon="3.72268">
        <ele>260</ele>
        <time>2019-11-01T20:53:09+01:00</time>
      </trkpt>
      <trkpt lat="43.76922" lon="3.72255">
        <ele>260</ele>
        <time>2019-11-01T20:53:14+01:00</time>
      </trkpt>
      <trkpt lat="43.76872" lon="3.72177">
        <ele>260</ele>
        <time>2019-11-01T20:53:19+01:00</time>
      </trkpt>
      <trkpt lat="43.76866" lon="3.72164">
        <ele>260</ele>
        <time>2019-11-01T20:53:24+01:00</time>
      </trkpt>
      <trkpt lat="43.76866" lon="3.72144">
        <ele>261</ele>
        <time>2019-11-01T20:53:29+01:00</time>
      </trkpt>
      <trkpt lat="43.76855" lon="3.72114">
        <ele>260</ele>
        <time>2019-11-01T20:53:34+01:00</time>
      </trkpt>
      <trkpt lat="43.76855" lon="3.72096">
        <ele>260</ele>
        <time>2019-11-01T20:53:39+01:00</time>
      </trkpt>
      <trkpt lat="43.76857" lon="3.72072">
        <ele>259</ele>
        <time>2019-11-01T20:53:44+01:00</time>
      </trkpt>
      <trkpt lat="43.76851" lon="3.72023">
        <ele>259</ele>
        <time>2019-11-01T20:53:49+01:00</time>
      </trkpt>
      <trkpt lat="43.76839" lon="3.71985">
        <ele>258</ele>
        <time>2019-11-01T20:53:54+01:00</time>
      </trkpt>
      <trkpt lat="43.76832" lon="3.71961">
        <ele>257</ele>
        <time>2019-11-01T20:53:59+01:00</time>
      </trkpt>
      <trkpt lat="43.76829" lon="3.71942">
        <ele>256</ele>
        <time>2019-11-01T20:54:04+01:00</time>
      </trkpt>
      <trkpt lat="43.76825" lon="3.71915">
        <ele>255</ele>
        <time>2019-11-01T20:54:09+01:00</time>
      </trkpt>
      <trkpt lat="43.76825" lon="3.71873">
        <ele>255</ele>
        <time>2019-11-01T20:54:14+01:00</time>
      </trkpt>
      <trkpt lat="43.76828" lon="3.71847">
        <ele>254</ele>
        <time>2019-11-01T20:54:19+01:00</time>
      </trkpt>
      <trkpt lat="43.76833" lon="3.71836">
        <ele>254</ele>
        <time>2019-11-01T20:54:24+01:00</time>
      </trkpt>
      <trkpt lat="43.7684" lon="3.71831">
        <ele>255</ele>
        <time>2019-11-01T20:54:29+01:00</time>
      </trkpt>
      <trkpt lat="43.76847" lon="3.71833">
        <ele>256</ele>
        <time>2019-11-01T20:54:34+01:00</time>
      </trkpt>
      <trkpt lat="43.76852" lon="3.71828">
        <ele>257</ele>
        <time>2019-11-01T20:54:39+01:00</time>
      </trkpt>
      <trkpt lat="43.76871" lon="3.71831">
        <ele>259</ele>
        <time>2019-11-01T20:54:44+01:00</time>
      </trkpt>
      <trkpt lat="43.76898" lon="3.71829">
        <ele>262</ele>
        <time>2019-11-01T20:54:49+01:00</time>
      </trkpt>
      <trkpt lat="43.76914" lon="3.71823">
        <ele>262</ele>
        <time>2019-11-01T20:54:54+01:00</time>
      </trkpt>
      <trkpt lat="43.76884" lon="3.7172">
        <ele>251</ele>
        <time>2019-11-01T20:54:59+01:00</time>
      </trkpt>
      <trkpt lat="43.76879" lon="3.71709">
        <ele>252</ele>
        <time>2019-11-01T20:55:04+01:00</time>
      </trkpt>
      <trkpt lat="43.76877" lon="3.71697">
        <ele>253</ele>
        <time>2019-11-01T20:55:09+01:00</time>
      </trkpt>
      <trkpt lat="43.76877" lon="3.71672">
        <ele>253</ele>
        <time>2019-11-01T20:55:14+01:00</time>
      </trkpt>
      <trkpt lat="43.76886" lon="3.7164">
        <ele>253</ele>
        <time>2019-11-01T20:55:19+01:00</time>
      </trkpt>
      <trkpt lat="43.76895" lon="3.71624">
        <ele>252</ele>
        <time>2019-11-01T20:55:24+01:00</time>
      </trkpt>
      <trkpt lat="43.76923" lon="3.71596">
        <ele>251</ele>
        <time>2019-11-01T20:55:29+01:00</time>
      </trkpt>
      <trkpt lat="43.76956" lon="3.71569">
        <ele>246</ele>
        <time>2019-11-01T20:55:34+01:00</time>
      </trkpt>
      <trkpt lat="43.76971" lon="3.71545">
        <ele>243</ele>
        <time>2019-11-01T20:55:39+01:00</time>
      </trkpt>
      <trkpt lat="43.76977" lon="3.71527">
        <ele>240</ele>
        <time>2019-11-01T20:55:44+01:00</time>
      </trkpt>
      <trkpt lat="43.76988" lon="3.71508">
        <ele>236</ele>
        <time>2019-11-01T20:55:49+01:00</time>
      </trkpt>
      <trkpt lat="43.76995" lon="3.7148">
        <ele>235</ele>
        <time>2019-11-01T20:55:54+01:00</time>
      </trkpt>
      <trkpt lat="43.76981" lon="3.71466">
        <ele>236</ele>
        <time>2019-11-01T20:55:59+01:00</time>
      </trkpt>
      <trkpt lat="43.76974" lon="3.71446">
        <ele>238</ele>
        <time>2019-11-01T20:56:04+01:00</time>
      </trkpt>
      <trkpt lat="43.76965" lon="3.71407">
        <ele>241</ele>
        <time>2019-11-01T20:56:09+01:00</time>
      </trkpt>
      <trkpt lat="43.76953" lon="3.71381">
        <ele>245</ele>
        <time>2019-11-01T20:56:14+01:00</time>
      </trkpt>
      <trkpt lat="43.7695" lon="3.71362">
        <ele>247</ele>
        <time>2019-11-01T20:56:19+01:00</time>
      </trkpt>
      <trkpt lat="43.76946" lon="3.71333">
        <ele>250</ele>
        <time>2019-11-01T20:56:24+01:00</time>
      </trkpt>
      <trkpt lat="43.76941" lon="3.71303">
        <ele>253</ele>
        <time>2019-11-01T20:56:29+01:00</time>
      </trkpt>
      <trkpt lat="43.7692" lon="3.7126">
        <ele>257</ele>
        <time>2019-11-01T20:56:34+01:00</time>
      </trkpt>
      <trkpt lat="43.76906" lon="3.7123">
        <ele>259</ele>
        <time>2019-11-01T20:56:39+01:00</time>
      </trkpt>
      <trkpt lat="43.76874" lon="3.71194">
        <ele>260</ele>
        <time>2019-11-01T20:56:44+01:00</time>
      </trkpt>
      <trkpt lat="43.7685" lon="3.71181">
        <ele>261</ele>
        <time>2019-11-01T20:56:49+01:00</time>
      </trkpt>
      <trkpt lat="43.76834" lon="3.71167">
        <ele>262</ele>
        <time>2019-11-01T20:56:54+01:00</time>
      </trkpt>
      <trkpt lat="43.76815" lon="3.71144">
        <ele>263</ele>
        <time>2019-11-01T20:56:59+01:00</time>
      </trkpt>
      <trkpt lat="43.76811" lon="3.71136">
        <ele>263</ele>
        <time>2019-11-01T20:57:04+01:00</time>
      </trkpt>
      <trkpt lat="43.76805" lon="3.7113">
        <ele>263</ele>
        <time>2019-11-01T20:57:09+01:00</time>
      </trkpt>
      <trkpt lat="43.76781" lon="3.71113">
        <ele>266</ele>
        <time>2019-11-01T20:57:14+01:00</time>
      </trkpt>
      <trkpt lat="43.76776" lon="3.71104">
        <ele>266</ele>
        <time>2019-11-01T20:57:19+01:00</time>
      </trkpt>
      <trkpt lat="43.76765" lon="3.71059">
        <ele>267</ele>
        <time>2019-11-01T20:57:24+01:00</time>
      </trkpt>
      <trkpt lat="43.76754" lon="3.71033">
        <ele>269</ele>
        <time>2019-11-01T20:57:29+01:00</time>
      </trkpt>
      <trkpt lat="43.76745" lon="3.71013">
        <ele>270</ele>
        <time>2019-11-01T20:57:34+01:00</time>
      </trkpt>
      <trkpt lat="43.76733" lon="3.70999">
        <ele>271</ele>
        <time>2019-11-01T20:57:39+01:00</time>
      </trkpt>
      <trkpt lat="43.76699" lon="3.70974">
        <ele>272</ele>
        <time>2019-11-01T20:57:44+01:00</time>
      </trkpt>
      <trkpt lat="43.7667" lon="3.70956">
        <ele>272</ele>
        <time>2019-11-01T20:57:49+01:00</time>
      </trkpt>
      <trkpt lat="43.76651" lon="3.70941">
        <ele>272</ele>
        <time>2019-11-01T20:57:54+01:00</time>
      </trkpt>
      <trkpt lat="43.76644" lon="3.70933">
        <ele>272</ele>
        <time>2019-11-01T20:57:59+01:00</time>
      </trkpt>
      <trkpt lat="43.76632" lon="3.7092">
        <ele>272</ele>
        <time>2019-11-01T20:58:04+01:00</time>
      </trkpt>
      <trkpt lat="43.76613" lon="3.70905">
        <ele>274</ele>
        <time>2019-11-01T20:58:09+01:00</time>
      </trkpt>
      <trkpt lat="43.76591" lon="3.70867">
        <ele>274</ele>
        <time>2019-11-01T20:58:14+01:00</time>
      </trkpt>
      <trkpt lat="43.76583" lon="3.70848">
        <ele>275</ele>
        <time>2019-11-01T20:58:19+01:00</time>
      </trkpt>
      <trkpt lat="43.7657" lon="3.70827">
        <ele>276</ele>
        <time>2019-11-01T20:58:24+01:00</time>
      </trkpt>
      <trkpt lat="43.76556" lon="3.70778">
        <ele>279</ele>
        <time>2019-11-01T20:58:29+01:00</time>
      </trkpt>
      <trkpt lat="43.76551" lon="3.70723">
        <ele>281</ele>
        <time>2019-11-01T20:58:34+01:00</time>
      </trkpt>
      <trkpt lat="43.76542" lon="3.70689">
        <ele>281</ele>
        <time>2019-11-01T20:58:39+01:00</time>
      </trkpt>
      <trkpt lat="43.76529" lon="3.70668">
        <ele>282</ele>
        <time>2019-11-01T20:58:44+01:00</time>
      </trkpt>
      <trkpt lat="43.76509" lon="3.70642">
        <ele>285</ele>
        <time>2019-11-01T20:58:49+01:00</time>
      </trkpt>
      <trkpt lat="43.76496" lon="3.70629">
        <ele>286</ele>
        <time>2019-11-01T20:58:54+01:00</time>
      </trkpt>
      <trkpt lat="43.7649" lon="3.7062">
        <ele>286</ele>
        <time>2019-11-01T20:58:59+01:00</time>
      </trkpt>
      <trkpt lat="43.76485" lon="3.70609">
        <ele>286</ele>
        <time>2019-11-01T20:59:04+01:00</time>
      </trkpt>
      <trkpt lat="43.76485" lon="3.70591">
        <ele>287</ele>
        <time>2019-11-01T20:59:09+01:00</time>
      </trkpt>
      <trkpt lat="43.76489" lon="3.70572">
        <ele>288</ele>
        <time>2019-11-01T20:59:14+01:00</time>
      </trkpt>
      <trkpt lat="43.76487" lon="3.70555">
        <ele>289</ele>
        <time>2019-11-01T20:59:19+01:00</time>
      </trkpt>
      <trkpt lat="43.7648" lon="3.70543">
        <ele>289</ele>
        <time>2019-11-01T20:59:24+01:00</time>
      </trkpt>
      <trkpt lat="43.76471" lon="3.70518">
        <ele>288</ele>
        <time>2019-11-01T20:59:29+01:00</time>
      </trkpt>
      <trkpt lat="43.76475" lon="3.70494">
        <ele>291</ele>
        <time>2019-11-01T20:59:34+01:00</time>
      </trkpt>
      <trkpt lat="43.7648" lon="3.70477">
        <ele>292</ele>
        <time>2019-11-01T20:59:39+01:00</time>
      </trkpt>
      <trkpt lat="43.76489" lon="3.70465">
        <ele>294</ele>
        <time>2019-11-01T20:59:44+01:00</time>
      </trkpt>
      <trkpt lat="43.76498" lon="3.70457">
        <ele>296</ele>
        <time>2019-11-01T20:59:49+01:00</time>
      </trkpt>
      <trkpt lat="43.76506" lon="3.70447">
        <ele>298</ele>
        <time>2019-11-01T20:59:54+01:00</time>
      </trkpt>
      <trkpt lat="43.76506" lon="3.70423">
        <ele>298</ele>
        <time>2019-11-01T20:59:59+01:00</time>
      </trkpt>
      <trkpt lat="43.76509" lon="3.70399">
        <ele>297</ele>
        <time>2019-11-01T21:00:04+01:00</time>
      </trkpt>
      <trkpt lat="43.76509" lon="3.7037">
        <ele>297</ele>
        <time>2019-11-01T21:00:09+01:00</time>
      </trkpt>
      <trkpt lat="43.76504" lon="3.70351">
        <ele>296</ele>
        <time>2019-11-01T21:00:14+01:00</time>
      </trkpt>
      <trkpt lat="43.76494" lon="3.70326">
        <ele>294</ele>
        <time>2019-11-01T21:00:19+01:00</time>
      </trkpt>
      <trkpt lat="43.76491" lon="3.70291">
        <ele>292</ele>
        <time>2019-11-01T21:00:24+01:00</time>
      </trkpt>
      <trkpt lat="43.76492" lon="3.70277">
        <ele>293</ele>
        <time>2019-11-01T21:00:29+01:00</time>
      </trkpt>
      <trkpt lat="43.76496" lon="3.70259">
        <ele>293</ele>
        <time>2019-11-01T21:00:34+01:00</time>
      </trkpt>
      <trkpt lat="43.76496" lon="3.70242">
        <ele>292</ele>
        <time>2019-11-01T21:00:39+01:00</time>
      </trkpt>
      <trkpt lat="43.765" lon="3.70222">
        <ele>293</ele>
        <time>2019-11-01T21:00:44+01:00</time>
      </trkpt>
      <trkpt lat="43.76506" lon="3.70207">
        <ele>294</ele>
        <time>2019-11-01T21:00:49+01:00</time>
      </trkpt>
      <trkpt lat="43.76518" lon="3.7019">
        <ele>295</ele>
        <time>2019-11-01T21:00:54+01:00</time>
      </trkpt>
      <trkpt lat="43.76526" lon="3.70184">
        <ele>295</ele>
        <time>2019-11-01T21:00:59+01:00</time>
      </trkpt>
      <trkpt lat="43.76538" lon="3.70112">
        <ele>295</ele>
        <time>2019-11-01T21:01:04+01:00</time>
      </trkpt>
      <trkpt lat="43.76542" lon="3.70099">
        <ele>295</ele>
        <time>2019-11-01T21:01:09+01:00</time>
      </trkpt>
      <trkpt lat="43.76556" lon="3.70076">
        <ele>295</ele>
        <time>2019-11-01T21:01:14+01:00</time>
      </trkpt>
      <trkpt lat="43.76571" lon="3.70058">
        <ele>295</ele>
        <time>2019-11-01T21:01:19+01:00</time>
      </trkpt>
      <trkpt lat="43.7659" lon="3.70026">
        <ele>294</ele>
        <time>2019-11-01T21:01:24+01:00</time>
      </trkpt>
      <trkpt lat="43.76606" lon="3.70006">
        <ele>294</ele>
        <time>2019-11-01T21:01:29+01:00</time>
      </trkpt>
      <trkpt lat="43.7661" lon="3.69994">
        <ele>294</ele>
        <time>2019-11-01T21:01:34+01:00</time>
      </trkpt>
      <trkpt lat="43.76613" lon="3.69963">
        <ele>294</ele>
        <time>2019-11-01T21:01:39+01:00</time>
      </trkpt>
      <trkpt lat="43.76613" lon="3.69941">
        <ele>294</ele>
        <time>2019-11-01T21:01:44+01:00</time>
      </trkpt>
      <trkpt lat="43.76609" lon="3.69894">
        <ele>294</ele>
        <time>2019-11-01T21:01:49+01:00</time>
      </trkpt>
      <trkpt lat="43.76599" lon="3.69863">
        <ele>293</ele>
        <time>2019-11-01T21:01:54+01:00</time>
      </trkpt>
      <trkpt lat="43.7659" lon="3.69814">
        <ele>294</ele>
        <time>2019-11-01T21:01:59+01:00</time>
      </trkpt>
      <trkpt lat="43.76575" lon="3.69739">
        <ele>290</ele>
        <time>2019-11-01T21:02:04+01:00</time>
      </trkpt>
      <trkpt lat="43.76571" lon="3.69721">
        <ele>290</ele>
        <time>2019-11-01T21:02:09+01:00</time>
      </trkpt>
      <trkpt lat="43.76571" lon="3.69698">
        <ele>290</ele>
        <time>2019-11-01T21:02:14+01:00</time>
      </trkpt>
      <trkpt lat="43.76583" lon="3.69675">
        <ele>290</ele>
        <time>2019-11-01T21:02:19+01:00</time>
      </trkpt>
      <trkpt lat="43.76585" lon="3.69653">
        <ele>290</ele>
        <time>2019-11-01T21:02:24+01:00</time>
      </trkpt>
      <trkpt lat="43.76578" lon="3.69624">
        <ele>290</ele>
        <time>2019-11-01T21:02:29+01:00</time>
      </trkpt>
      <trkpt lat="43.76583" lon="3.69589">
        <ele>290</ele>
        <time>2019-11-01T21:02:34+01:00</time>
      </trkpt>
      <trkpt lat="43.76585" lon="3.69547">
        <ele>291</ele>
        <time>2019-11-01T21:02:39+01:00</time>
      </trkpt>
      <trkpt lat="43.76577" lon="3.69517">
        <ele>292</ele>
        <time>2019-11-01T21:02:44+01:00</time>
      </trkpt>
      <trkpt lat="43.7657" lon="3.69493">
        <ele>292</ele>
        <time>2019-11-01T21:02:49+01:00</time>
      </trkpt>
      <trkpt lat="43.7657" lon="3.69481">
        <ele>293</ele>
        <time>2019-11-01T21:02:54+01:00</time>
      </trkpt>
      <trkpt lat="43.76569" lon="3.69462">
        <ele>293</ele>
        <time>2019-11-01T21:02:59+01:00</time>
      </trkpt>
      <trkpt lat="43.76564" lon="3.69445">
        <ele>294</ele>
        <time>2019-11-01T21:03:04+01:00</time>
      </trkpt>
      <trkpt lat="43.76561" lon="3.69407">
        <ele>295</ele>
        <time>2019-11-01T21:03:09+01:00</time>
      </trkpt>
      <trkpt lat="43.76556" lon="3.69385">
        <ele>295</ele>
        <time>2019-11-01T21:03:14+01:00</time>
      </trkpt>
      <trkpt lat="43.76553" lon="3.69358">
        <ele>295</ele>
        <time>2019-11-01T21:03:19+01:00</time>
      </trkpt>
      <trkpt lat="43.7654" lon="3.69344">
        <ele>296</ele>
        <time>2019-11-01T21:03:24+01:00</time>
      </trkpt>
      <trkpt lat="43.76535" lon="3.69321">
        <ele>298</ele>
        <time>2019-11-01T21:03:29+01:00</time>
      </trkpt>
      <trkpt lat="43.76532" lon="3.6928">
        <ele>300</ele>
        <time>2019-11-01T21:03:34+01:00</time>
      </trkpt>
      <trkpt lat="43.76523" lon="3.6925">
        <ele>301</ele>
        <time>2019-11-01T21:03:39+01:00</time>
      </trkpt>
      <trkpt lat="43.76513" lon="3.69227">
        <ele>304</ele>
        <time>2019-11-01T21:03:44+01:00</time>
      </trkpt>
      <trkpt lat="43.76513" lon="3.69208">
        <ele>305</ele>
        <time>2019-11-01T21:03:49+01:00</time>
      </trkpt>
      <trkpt lat="43.76519" lon="3.69191">
        <ele>306</ele>
        <time>2019-11-01T21:03:54+01:00</time>
      </trkpt>
      <trkpt lat="43.76518" lon="3.69174">
        <ele>307</ele>
        <time>2019-11-01T21:03:59+01:00</time>
      </trkpt>
      <trkpt lat="43.76513" lon="3.69159">
        <ele>309</ele>
        <time>2019-11-01T21:04:04+01:00</time>
      </trkpt>
      <trkpt lat="43.76488" lon="3.69118">
        <ele>311</ele>
        <time>2019-11-01T21:04:09+01:00</time>
      </trkpt>
      <trkpt lat="43.76467" lon="3.69087">
        <ele>312</ele>
        <time>2019-11-01T21:04:14+01:00</time>
      </trkpt>
      <trkpt lat="43.76451" lon="3.69075">
        <ele>313</ele>
        <time>2019-11-01T21:04:19+01:00</time>
      </trkpt>
      <trkpt lat="43.76434" lon="3.69065">
        <ele>316</ele>
        <time>2019-11-01T21:04:24+01:00</time>
      </trkpt>
      <trkpt lat="43.76419" lon="3.69048">
        <ele>320</ele>
        <time>2019-11-01T21:04:29+01:00</time>
      </trkpt>
      <trkpt lat="43.76413" lon="3.69042">
        <ele>321</ele>
        <time>2019-11-01T21:04:34+01:00</time>
      </trkpt>
      <trkpt lat="43.76401" lon="3.69033">
        <ele>321</ele>
        <time>2019-11-01T21:04:39+01:00</time>
      </trkpt>
      <trkpt lat="43.76383" lon="3.69009">
        <ele>323</ele>
        <time>2019-11-01T21:04:44+01:00</time>
      </trkpt>
      <trkpt lat="43.76373" lon="3.68995">
        <ele>323</ele>
        <time>2019-11-01T21:04:49+01:00</time>
      </trkpt>
      <trkpt lat="43.76362" lon="3.68988">
        <ele>322</ele>
        <time>2019-11-01T21:04:54+01:00</time>
      </trkpt>
      <trkpt lat="43.76326" lon="3.68978">
        <ele>324</ele>
        <time>2019-11-01T21:04:59+01:00</time>
      </trkpt>
      <trkpt lat="43.763" lon="3.68973">
        <ele>328</ele>
        <time>2019-11-01T21:05:04+01:00</time>
      </trkpt>
      <trkpt lat="43.7627" lon="3.6896">
        <ele>329</ele>
        <time>2019-11-01T21:05:09+01:00</time>
      </trkpt>
      <trkpt lat="43.76243" lon="3.68937">
        <ele>330</ele>
        <time>2019-11-01T21:05:14+01:00</time>
      </trkpt>
      <trkpt lat="43.76233" lon="3.68937">
        <ele>330</ele>
        <time>2019-11-01T21:05:19+01:00</time>
      </trkpt>
      <trkpt lat="43.76219" lon="3.68942">
        <ele>330</ele>
        <time>2019-11-01T21:05:24+01:00</time>
      </trkpt>
      <trkpt lat="43.7621" lon="3.68938">
        <ele>330</ele>
        <time>2019-11-01T21:05:29+01:00</time>
      </trkpt>
      <trkpt lat="43.76177" lon="3.68912">
        <ele>331</ele>
        <time>2019-11-01T21:05:34+01:00</time>
      </trkpt>
      <trkpt lat="43.76166" lon="3.689">
        <ele>332</ele>
        <time>2019-11-01T21:05:39+01:00</time>
      </trkpt>
      <trkpt lat="43.76158" lon="3.68897">
        <ele>334</ele>
        <time>2019-11-01T21:05:44+01:00</time>
      </trkpt>
      <trkpt lat="43.76154" lon="3.68911">
        <ele>334</ele>
        <time>2019-11-01T21:05:49+01:00</time>
      </trkpt>
      <trkpt lat="43.76148" lon="3.68916">
        <ele>335</ele>
        <time>2019-11-01T21:05:54+01:00</time>
      </trkpt>
      <trkpt lat="43.76112" lon="3.68915">
        <ele>339</ele>
        <time>2019-11-01T21:05:59+01:00</time>
      </trkpt>
      <trkpt lat="43.76106" lon="3.68918">
        <ele>340</ele>
        <time>2019-11-01T21:06:04+01:00</time>
      </trkpt>
      <trkpt lat="43.76106" lon="3.68926">
        <ele>341</ele>
        <time>2019-11-01T21:06:09+01:00</time>
      </trkpt>
      <trkpt lat="43.76117" lon="3.68932">
        <ele>340</ele>
        <time>2019-11-01T21:06:14+01:00</time>
      </trkpt>
      <trkpt lat="43.76122" lon="3.68939">
        <ele>340</ele>
        <time>2019-11-01T21:06:19+01:00</time>
      </trkpt>
      <trkpt lat="43.76121" lon="3.68951">
        <ele>341</ele>
        <time>2019-11-01T21:06:24+01:00</time>
      </trkpt>
      <trkpt lat="43.76119" lon="3.68962">
        <ele>342</ele>
        <time>2019-11-01T21:06:29+01:00</time>
      </trkpt>
      <trkpt lat="43.76119" lon="3.68972">
        <ele>343</ele>
        <time>2019-11-01T21:06:34+01:00</time>
      </trkpt>
      <trkpt lat="43.76126" lon="3.6899">
        <ele>345</ele>
        <time>2019-11-01T21:06:39+01:00</time>
      </trkpt>
      <trkpt lat="43.76134" lon="3.6901">
        <ele>345</ele>
        <time>2019-11-01T21:06:44+01:00</time>
      </trkpt>
      <trkpt lat="43.76136" lon="3.69028">
        <ele>346</ele>
        <time>2019-11-01T21:06:49+01:00</time>
      </trkpt>
      <trkpt lat="43.76133" lon="3.69045">
        <ele>349</ele>
        <time>2019-11-01T21:06:54+01:00</time>
      </trkpt>
      <trkpt lat="43.76125" lon="3.69061">
        <ele>351</ele>
        <time>2019-11-01T21:06:59+01:00</time>
      </trkpt>
      <trkpt lat="43.76115" lon="3.69075">
        <ele>352</ele>
        <time>2019-11-01T21:07:04+01:00</time>
      </trkpt>
      <trkpt lat="43.76101" lon="3.69086">
        <ele>353</ele>
        <time>2019-11-01T21:07:09+01:00</time>
      </trkpt>
      <trkpt lat="43.76087" lon="3.69099">
        <ele>355</ele>
        <time>2019-11-01T21:07:14+01:00</time>
      </trkpt>
      <trkpt lat="43.76066" lon="3.6911">
        <ele>356</ele>
        <time>2019-11-01T21:07:19+01:00</time>
      </trkpt>
      <trkpt lat="43.76049" lon="3.69122">
        <ele>357</ele>
        <time>2019-11-01T21:07:24+01:00</time>
      </trkpt>
      <trkpt lat="43.76019" lon="3.69152">
        <ele>358</ele>
        <time>2019-11-01T21:07:29+01:00</time>
      </trkpt>
      <trkpt lat="43.75998" lon="3.69171">
        <ele>359</ele>
        <time>2019-11-01T21:07:34+01:00</time>
      </trkpt>
      <trkpt lat="43.75968" lon="3.6919">
        <ele>359</ele>
        <time>2019-11-01T21:07:39+01:00</time>
      </trkpt>
      <trkpt lat="43.75957" lon="3.69205">
        <ele>359</ele>
        <time>2019-11-01T21:07:44+01:00</time>
      </trkpt>
      <trkpt lat="43.75937" lon="3.69224">
        <ele>359</ele>
        <time>2019-11-01T21:07:49+01:00</time>
      </trkpt>
      <trkpt lat="43.75923" lon="3.69249">
        <ele>358</ele>
        <time>2019-11-01T21:07:54+01:00</time>
      </trkpt>
      <trkpt lat="43.75905" lon="3.69305">
        <ele>355</ele>
        <time>2019-11-01T21:07:59+01:00</time>
      </trkpt>
      <trkpt lat="43.75885" lon="3.69332">
        <ele>355</ele>
        <time>2019-11-01T21:08:04+01:00</time>
      </trkpt>
      <trkpt lat="43.75861" lon="3.69356">
        <ele>355</ele>
        <time>2019-11-01T21:08:09+01:00</time>
      </trkpt>
      <trkpt lat="43.75821" lon="3.69386">
        <ele>356</ele>
        <time>2019-11-01T21:08:14+01:00</time>
      </trkpt>
      <trkpt lat="43.75765" lon="3.69412">
        <ele>357</ele>
        <time>2019-11-01T21:08:19+01:00</time>
      </trkpt>
      <trkpt lat="43.75737" lon="3.69452">
        <ele>352</ele>
        <time>2019-11-01T21:08:24+01:00</time>
      </trkpt>
      <trkpt lat="43.7572" lon="3.69465">
        <ele>350</ele>
        <time>2019-11-01T21:08:29+01:00</time>
      </trkpt>
      <trkpt lat="43.75703" lon="3.69492">
        <ele>347</ele>
        <time>2019-11-01T21:08:34+01:00</time>
      </trkpt>
      <trkpt lat="43.75678" lon="3.69509">
        <ele>344</ele>
        <time>2019-11-01T21:08:39+01:00</time>
      </trkpt>
      <trkpt lat="43.75658" lon="3.69503">
        <ele>341</ele>
        <time>2019-11-01T21:08:44+01:00</time>
      </trkpt>
      <trkpt lat="43.75638" lon="3.69444">
        <ele>343</ele>
        <time>2019-11-01T21:08:49+01:00</time>
      </trkpt>
      <trkpt lat="43.7561" lon="3.69418">
        <ele>342</ele>
        <time>2019-11-01T21:08:54+01:00</time>
      </trkpt>
      <trkpt lat="43.75585" lon="3.69404">
        <ele>340</ele>
        <time>2019-11-01T21:08:59+01:00</time>
      </trkpt>
      <trkpt lat="43.75572" lon="3.69389">
        <ele>342</ele>
        <time>2019-11-01T21:09:04+01:00</time>
      </trkpt>
      <trkpt lat="43.75533" lon="3.69378">
        <ele>342</ele>
        <time>2019-11-01T21:09:09+01:00</time>
      </trkpt>
      <trkpt lat="43.75499" lon="3.69348">
        <ele>342</ele>
        <time>2019-11-01T21:09:14+01:00</time>
      </trkpt>
      <trkpt lat="43.75459" lon="3.69312">
        <ele>341</ele>
        <time>2019-11-01T21:09:19+01:00</time>
      </trkpt>
      <trkpt lat="43.7544" lon="3.69293">
        <ele>340</ele>
        <time>2019-11-01T21:09:24+01:00</time>
      </trkpt>
      <trkpt lat="43.75431" lon="3.69272">
        <ele>341</ele>
        <time>2019-11-01T21:09:29+01:00</time>
      </trkpt>
      <trkpt lat="43.75406" lon="3.69253">
        <ele>338</ele>
        <time>2019-11-01T21:09:34+01:00</time>
      </trkpt>
      <trkpt lat="43.75384" lon="3.69216">
        <ele>337</ele>
        <time>2019-11-01T21:09:39+01:00</time>
      </trkpt>
      <trkpt lat="43.75358" lon="3.69187">
        <ele>334</ele>
        <time>2019-11-01T21:09:44+01:00</time>
      </trkpt>
      <trkpt lat="43.75347" lon="3.69162">
        <ele>333</ele>
        <time>2019-11-01T21:09:49+01:00</time>
      </trkpt>
      <trkpt lat="43.75282" lon="3.69145">
        <ele>325</ele>
        <time>2019-11-01T21:09:54+01:00</time>
      </trkpt>
      <trkpt lat="43.75253" lon="3.69128">
        <ele>320</ele>
        <time>2019-11-01T21:09:59+01:00</time>
      </trkpt>
      <trkpt lat="43.75211" lon="3.69097">
        <ele>313</ele>
        <time>2019-11-01T21:10:04+01:00</time>
      </trkpt>
      <trkpt lat="43.75199" lon="3.6907">
        <ele>306</ele>
        <time>2019-11-01T21:10:09+01:00</time>
      </trkpt>
      <trkpt lat="43.75186" lon="3.69072">
        <ele>304</ele>
        <time>2019-11-01T21:10:14+01:00</time>
      </trkpt>
      <trkpt lat="43.75175" lon="3.69087">
        <ele>304</ele>
        <time>2019-11-01T21:10:19+01:00</time>
      </trkpt>
      <trkpt lat="43.75173" lon="3.69112">
        <ele>306</ele>
        <time>2019-11-01T21:10:24+01:00</time>
      </trkpt>
      <trkpt lat="43.75172" lon="3.69132">
        <ele>304</ele>
        <time>2019-11-01T21:10:29+01:00</time>
      </trkpt>
      <trkpt lat="43.75175" lon="3.69243">
        <ele>293</ele>
        <time>2019-11-01T21:10:34+01:00</time>
      </trkpt>
      <trkpt lat="43.75158" lon="3.69332">
        <ele>282</ele>
        <time>2019-11-01T21:10:39+01:00</time>
      </trkpt>
      <trkpt lat="43.7515" lon="3.69358">
        <ele>279</ele>
        <time>2019-11-01T21:10:44+01:00</time>
      </trkpt>
      <trkpt lat="43.75146" lon="3.69389">
        <ele>277</ele>
        <time>2019-11-01T21:10:49+01:00</time>
      </trkpt>
      <trkpt lat="43.75135" lon="3.69422">
        <ele>274</ele>
        <time>2019-11-01T21:10:54+01:00</time>
      </trkpt>
      <trkpt lat="43.75131" lon="3.69441">
        <ele>273</ele>
        <time>2019-11-01T21:10:59+01:00</time>
      </trkpt>
      <trkpt lat="43.75118" lon="3.69477">
        <ele>272</ele>
        <time>2019-11-01T21:11:04+01:00</time>
      </trkpt>
      <trkpt lat="43.75107" lon="3.69486">
        <ele>271</ele>
        <time>2019-11-01T21:11:09+01:00</time>
      </trkpt>
      <trkpt lat="43.75095" lon="3.69491">
        <ele>271</ele>
        <time>2019-11-01T21:11:14+01:00</time>
      </trkpt>
      <trkpt lat="43.75075" lon="3.69528">
        <ele>270</ele>
        <time>2019-11-01T21:11:19+01:00</time>
      </trkpt>
      <trkpt lat="43.75065" lon="3.69544">
        <ele>269</ele>
        <time>2019-11-01T21:11:24+01:00</time>
      </trkpt>
      <trkpt lat="43.75088" lon="3.69548">
        <ele>269</ele>
        <time>2019-11-01T21:11:29+01:00</time>
      </trkpt>
      <trkpt lat="43.75108" lon="3.69555">
        <ele>269</ele>
        <time>2019-11-01T21:11:34+01:00</time>
      </trkpt>
      <trkpt lat="43.75125" lon="3.69572">
        <ele>269</ele>
        <time>2019-11-01T21:11:39+01:00</time>
      </trkpt>
      <trkpt lat="43.7515" lon="3.69618">
        <ele>269</ele>
        <time>2019-11-01T21:11:44+01:00</time>
      </trkpt>
      <trkpt lat="43.75176" lon="3.69682">
        <ele>268</ele>
        <time>2019-11-01T21:11:49+01:00</time>
      </trkpt>
      <trkpt lat="43.75195" lon="3.69726">
        <ele>269</ele>
        <time>2019-11-01T21:11:54+01:00</time>
      </trkpt>
      <trkpt lat="43.75209" lon="3.69774">
        <ele>268</ele>
        <time>2019-11-01T21:11:59+01:00</time>
      </trkpt>
      <trkpt lat="43.75216" lon="3.69787">
        <ele>268</ele>
        <time>2019-11-01T21:12:04+01:00</time>
      </trkpt>
      <trkpt lat="43.75222" lon="3.69806">
        <ele>268</ele>
        <time>2019-11-01T21:12:09+01:00</time>
      </trkpt>
      <trkpt lat="43.75228" lon="3.69814">
        <ele>268</ele>
        <time>2019-11-01T21:12:14+01:00</time>
      </trkpt>
      <trkpt lat="43.75228" lon="3.69827">
        <ele>268</ele>
        <time>2019-11-01T21:12:19+01:00</time>
      </trkpt>
      <trkpt lat="43.75229" lon="3.69868">
        <ele>267</ele>
        <time>2019-11-01T21:12:24+01:00</time>
      </trkpt>
      <trkpt lat="43.7523" lon="3.69886">
        <ele>267</ele>
        <time>2019-11-01T21:12:29+01:00</time>
      </trkpt>
      <trkpt lat="43.75234" lon="3.69927">
        <ele>267</ele>
        <time>2019-11-01T21:12:34+01:00</time>
      </trkpt>
      <trkpt lat="43.75241" lon="3.69993">
        <ele>266</ele>
        <time>2019-11-01T21:12:39+01:00</time>
      </trkpt>
      <trkpt lat="43.75248" lon="3.70025">
        <ele>266</ele>
        <time>2019-11-01T21:12:44+01:00</time>
      </trkpt>
      <trkpt lat="43.75257" lon="3.70055">
        <ele>265</ele>
        <time>2019-11-01T21:12:49+01:00</time>
      </trkpt>
      <trkpt lat="43.75268" lon="3.70069">
        <ele>265</ele>
        <time>2019-11-01T21:12:54+01:00</time>
      </trkpt>
      <trkpt lat="43.75281" lon="3.70085">
        <ele>265</ele>
        <time>2019-11-01T21:12:59+01:00</time>
      </trkpt>
      <trkpt lat="43.75287" lon="3.70093">
        <ele>264</ele>
        <time>2019-11-01T21:13:04+01:00</time>
      </trkpt>
      <trkpt lat="43.75296" lon="3.70099">
        <ele>264</ele>
        <time>2019-11-01T21:13:09+01:00</time>
      </trkpt>
      <trkpt lat="43.75304" lon="3.70103">
        <ele>264</ele>
        <time>2019-11-01T21:13:14+01:00</time>
      </trkpt>
      <trkpt lat="43.75314" lon="3.70115">
        <ele>264</ele>
        <time>2019-11-01T21:13:19+01:00</time>
      </trkpt>
      <trkpt lat="43.75319" lon="3.70126">
        <ele>263</ele>
        <time>2019-11-01T21:13:24+01:00</time>
      </trkpt>
      <trkpt lat="43.75327" lon="3.70151">
        <ele>261</ele>
        <time>2019-11-01T21:13:29+01:00</time>
      </trkpt>
      <trkpt lat="43.75329" lon="3.70181">
        <ele>261</ele>
        <time>2019-11-01T21:13:34+01:00</time>
      </trkpt>
      <trkpt lat="43.75327" lon="3.70194">
        <ele>262</ele>
        <time>2019-11-01T21:13:39+01:00</time>
      </trkpt>
      <trkpt lat="43.75328" lon="3.70219">
        <ele>262</ele>
        <time>2019-11-01T21:13:44+01:00</time>
      </trkpt>
      <trkpt lat="43.75331" lon="3.70246">
        <ele>263</ele>
        <time>2019-11-01T21:13:49+01:00</time>
      </trkpt>
      <trkpt lat="43.75345" lon="3.70316">
        <ele>262</ele>
        <time>2019-11-01T21:13:54+01:00</time>
      </trkpt>
      <trkpt lat="43.75349" lon="3.70329">
        <ele>262</ele>
        <time>2019-11-01T21:13:59+01:00</time>
      </trkpt>
      <trkpt lat="43.75353" lon="3.70348">
        <ele>262</ele>
        <time>2019-11-01T21:14:04+01:00</time>
      </trkpt>
      <trkpt lat="43.75359" lon="3.70376">
        <ele>261</ele>
        <time>2019-11-01T21:14:09+01:00</time>
      </trkpt>
      <trkpt lat="43.75361" lon="3.70391">
        <ele>261</ele>
        <time>2019-11-01T21:14:14+01:00</time>
      </trkpt>
      <trkpt lat="43.75365" lon="3.70406">
        <ele>261</ele>
        <time>2019-11-01T21:14:19+01:00</time>
      </trkpt>
      <trkpt lat="43.75367" lon="3.70456">
        <ele>259</ele>
        <time>2019-11-01T21:14:24+01:00</time>
      </trkpt>
      <trkpt lat="43.75374" lon="3.70515">
        <ele>258</ele>
        <time>2019-11-01T21:14:29+01:00</time>
      </trkpt>
      <trkpt lat="43.75374" lon="3.7056">
        <ele>257</ele>
        <time>2019-11-01T21:14:34+01:00</time>
      </trkpt>
      <trkpt lat="43.7539" lon="3.70577">
        <ele>258</ele>
        <time>2019-11-01T21:14:39+01:00</time>
      </trkpt>
      <trkpt lat="43.75435" lon="3.70597">
        <ele>261</ele>
        <time>2019-11-01T21:14:44+01:00</time>
      </trkpt>
      <trkpt lat="43.75458" lon="3.70615">
        <ele>263</ele>
        <time>2019-11-01T21:14:49+01:00</time>
      </trkpt>
      <trkpt lat="43.75465" lon="3.70624">
        <ele>264</ele>
        <time>2019-11-01T21:14:54+01:00</time>
      </trkpt>
      <trkpt lat="43.75486" lon="3.70638">
        <ele>266</ele>
        <time>2019-11-01T21:14:59+01:00</time>
      </trkpt>
      <trkpt lat="43.75496" lon="3.70648">
        <ele>267</ele>
        <time>2019-11-01T21:15:04+01:00</time>
      </trkpt>
      <trkpt lat="43.75522" lon="3.70657">
        <ele>269</ele>
        <time>2019-11-01T21:15:09+01:00</time>
      </trkpt>
      <trkpt lat="43.75546" lon="3.70671">
        <ele>270</ele>
        <time>2019-11-01T21:15:14+01:00</time>
      </trkpt>
      <trkpt lat="43.75564" lon="3.70675">
        <ele>271</ele>
        <time>2019-11-01T21:15:19+01:00</time>
      </trkpt>
      <trkpt lat="43.75587" lon="3.70679">
        <ele>272</ele>
        <time>2019-11-01T21:15:24+01:00</time>
      </trkpt>
      <trkpt lat="43.7558" lon="3.70702">
        <ele>270</ele>
        <time>2019-11-01T21:15:29+01:00</time>
      </trkpt>
      <trkpt lat="43.75575" lon="3.70726">
        <ele>269</ele>
        <time>2019-11-01T21:15:34+01:00</time>
      </trkpt>
      <trkpt lat="43.75567" lon="3.70742">
        <ele>268</ele>
        <time>2019-11-01T21:15:39+01:00</time>
      </trkpt>
      <trkpt lat="43.7556" lon="3.70759">
        <ele>267</ele>
        <time>2019-11-01T21:15:44+01:00</time>
      </trkpt>
      <trkpt lat="43.75548" lon="3.7078">
        <ele>266</ele>
        <time>2019-11-01T21:15:49+01:00</time>
      </trkpt>
      <trkpt lat="43.75552" lon="3.70786">
        <ele>266</ele>
        <time>2019-11-01T21:15:54+01:00</time>
      </trkpt>
      <trkpt lat="43.75569" lon="3.70799">
        <ele>265</ele>
        <time>2019-11-01T21:15:59+01:00</time>
      </trkpt>
      <trkpt lat="43.75584" lon="3.70802">
        <ele>264</ele>
        <time>2019-11-01T21:16:04+01:00</time>
      </trkpt>
      <trkpt lat="43.75596" lon="3.70816">
        <ele>263</ele>
        <time>2019-11-01T21:16:09+01:00</time>
      </trkpt>
      <trkpt lat="43.75607" lon="3.70838">
        <ele>262</ele>
        <time>2019-11-01T21:16:14+01:00</time>
      </trkpt>
      <trkpt lat="43.75612" lon="3.70838">
        <ele>262</ele>
        <time>2019-11-01T21:16:19+01:00</time>
      </trkpt>
      <trkpt lat="43.75613" lon="3.70855">
        <ele>261</ele>
        <time>2019-11-01T21:16:24+01:00</time>
      </trkpt>
      <trkpt lat="43.75608" lon="3.70873">
        <ele>261</ele>
        <time>2019-11-01T21:16:29+01:00</time>
      </trkpt>
      <trkpt lat="43.75599" lon="3.70886">
        <ele>261</ele>
        <time>2019-11-01T21:16:34+01:00</time>
      </trkpt>
      <trkpt lat="43.75587" lon="3.70906">
        <ele>260</ele>
        <time>2019-11-01T21:16:39+01:00</time>
      </trkpt>
      <trkpt lat="43.75587" lon="3.70917">
        <ele>259</ele>
        <time>2019-11-01T21:16:44+01:00</time>
      </trkpt>
      <trkpt lat="43.75607" lon="3.70936">
        <ele>259</ele>
        <time>2019-11-01T21:16:49+01:00</time>
      </trkpt>
      <trkpt lat="43.75617" lon="3.70941">
        <ele>259</ele>
        <time>2019-11-01T21:16:54+01:00</time>
      </trkpt>
      <trkpt lat="43.75648" lon="3.70952">
        <ele>258</ele>
        <time>2019-11-01T21:16:59+01:00</time>
      </trkpt>
      <trkpt lat="43.75632" lon="3.70969">
        <ele>258</ele>
        <time>2019-11-01T21:17:04+01:00</time>
      </trkpt>
      <trkpt lat="43.75623" lon="3.70977">
        <ele>258</ele>
        <time>2019-11-01T21:17:09+01:00</time>
      </trkpt>
      <trkpt lat="43.75572" lon="3.71006">
        <ele>257</ele>
        <time>2019-11-01T21:17:14+01:00</time>
      </trkpt>
      <trkpt lat="43.7558" lon="3.71014">
        <ele>257</ele>
        <time>2019-11-01T21:17:19+01:00</time>
      </trkpt>
      <trkpt lat="43.75583" lon="3.7103">
        <ele>256</ele>
        <time>2019-11-01T21:17:24+01:00</time>
      </trkpt>
      <trkpt lat="43.75584" lon="3.71067">
        <ele>256</ele>
        <time>2019-11-01T21:17:29+01:00</time>
      </trkpt>
      <trkpt lat="43.75578" lon="3.71083">
        <ele>255</ele>
        <time>2019-11-01T21:17:34+01:00</time>
      </trkpt>
      <trkpt lat="43.75568" lon="3.71105">
        <ele>252</ele>
        <time>2019-11-01T21:17:39+01:00</time>
      </trkpt>
      <trkpt lat="43.75556" lon="3.71136">
        <ele>250</ele>
        <time>2019-11-01T21:17:44+01:00</time>
      </trkpt>
      <trkpt lat="43.75546" lon="3.71156">
        <ele>250</ele>
        <time>2019-11-01T21:17:49+01:00</time>
      </trkpt>
      <trkpt lat="43.75535" lon="3.71173">
        <ele>250</ele>
        <time>2019-11-01T21:17:54+01:00</time>
      </trkpt>
      <trkpt lat="43.75519" lon="3.712">
        <ele>250</ele>
        <time>2019-11-01T21:17:59+01:00</time>
      </trkpt>
      <trkpt lat="43.75505" lon="3.71225">
        <ele>250</ele>
        <time>2019-11-01T21:18:04+01:00</time>
      </trkpt>
      <trkpt lat="43.75492" lon="3.71254">
        <ele>249</ele>
        <time>2019-11-01T21:18:09+01:00</time>
      </trkpt>
      <trkpt lat="43.75525" lon="3.7131">
        <ele>249</ele>
        <time>2019-11-01T21:18:14+01:00</time>
      </trkpt>
      <trkpt lat="43.75569" lon="3.71352">
        <ele>251</ele>
        <time>2019-11-01T21:18:19+01:00</time>
      </trkpt>
      <trkpt lat="43.75573" lon="3.71357">
        <ele>251</ele>
        <time>2019-11-01T21:18:24+01:00</time>
      </trkpt>
      <trkpt lat="43.7558" lon="3.71367">
        <ele>252</ele>
        <time>2019-11-01T21:18:29+01:00</time>
      </trkpt>
      <trkpt lat="43.75604" lon="3.71387">
        <ele>253</ele>
        <time>2019-11-01T21:18:34+01:00</time>
      </trkpt>
      <trkpt lat="43.75641" lon="3.71412">
        <ele>255</ele>
        <time>2019-11-01T21:18:39+01:00</time>
      </trkpt>
      <trkpt lat="43.7565" lon="3.71427">
        <ele>255</ele>
        <time>2019-11-01T21:18:44+01:00</time>
      </trkpt>
      <trkpt lat="43.75656" lon="3.71444">
        <ele>255</ele>
        <time>2019-11-01T21:18:49+01:00</time>
      </trkpt>
      <trkpt lat="43.75661" lon="3.7145">
        <ele>255</ele>
        <time>2019-11-01T21:18:54+01:00</time>
      </trkpt>
      <trkpt lat="43.75652" lon="3.71486">
        <ele>255</ele>
        <time>2019-11-01T21:18:59+01:00</time>
      </trkpt>
      <trkpt lat="43.75646" lon="3.7152">
        <ele>255</ele>
        <time>2019-11-01T21:19:04+01:00</time>
      </trkpt>
      <trkpt lat="43.75626" lon="3.71552">
        <ele>255</ele>
        <time>2019-11-01T21:19:09+01:00</time>
      </trkpt>
      <trkpt lat="43.75608" lon="3.71566">
        <ele>254</ele>
        <time>2019-11-01T21:19:14+01:00</time>
      </trkpt>
      <trkpt lat="43.75589" lon="3.71586">
        <ele>253</ele>
        <time>2019-11-01T21:19:19+01:00</time>
      </trkpt>
      <trkpt lat="43.75581" lon="3.71606">
        <ele>253</ele>
        <time>2019-11-01T21:19:24+01:00</time>
      </trkpt>
      <trkpt lat="43.75579" lon="3.71622">
        <ele>253</ele>
        <time>2019-11-01T21:19:29+01:00</time>
      </trkpt>
      <trkpt lat="43.75577" lon="3.71636">
        <ele>252</ele>
        <time>2019-11-01T21:19:34+01:00</time>
      </trkpt>
      <trkpt lat="43.75569" lon="3.71654">
        <ele>252</ele>
        <time>2019-11-01T21:19:39+01:00</time>
      </trkpt>
      <trkpt lat="43.75563" lon="3.71673">
        <ele>251</ele>
        <time>2019-11-01T21:19:44+01:00</time>
      </trkpt>
      <trkpt lat="43.75566" lon="3.71686">
        <ele>251</ele>
        <time>2019-11-01T21:19:49+01:00</time>
      </trkpt>
      <trkpt lat="43.75575" lon="3.71697">
        <ele>251</ele>
        <time>2019-11-01T21:19:54+01:00</time>
      </trkpt>
      <trkpt lat="43.75579" lon="3.71703">
        <ele>251</ele>
        <time>2019-11-01T21:19:59+01:00</time>
      </trkpt>
      <trkpt lat="43.75578" lon="3.71734">
        <ele>250</ele>
        <time>2019-11-01T21:20:04+01:00</time>
      </trkpt>
      <trkpt lat="43.75585" lon="3.71764">
        <ele>248</ele>
        <time>2019-11-01T21:20:09+01:00</time>
      </trkpt>
      <trkpt lat="43.75585" lon="3.71779">
        <ele>247</ele>
        <time>2019-11-01T21:20:14+01:00</time>
      </trkpt>
      <trkpt lat="43.75582" lon="3.71799">
        <ele>246</ele>
        <time>2019-11-01T21:20:19+01:00</time>
      </trkpt>
      <trkpt lat="43.75576" lon="3.71816">
        <ele>245</ele>
        <time>2019-11-01T21:20:24+01:00</time>
      </trkpt>
      <trkpt lat="43.75565" lon="3.71827">
        <ele>245</ele>
        <time>2019-11-01T21:20:29+01:00</time>
      </trkpt>
      <trkpt lat="43.75553" lon="3.71836">
        <ele>245</ele>
        <time>2019-11-01T21:20:34+01:00</time>
      </trkpt>
      <trkpt lat="43.75539" lon="3.71856">
        <ele>245</ele>
        <time>2019-11-01T21:20:39+01:00</time>
      </trkpt>
      <trkpt lat="43.7551" lon="3.71876">
        <ele>245</ele>
        <time>2019-11-01T21:20:44+01:00</time>
      </trkpt>
      <trkpt lat="43.75497" lon="3.71881">
        <ele>245</ele>
        <time>2019-11-01T21:20:49+01:00</time>
      </trkpt>
      <trkpt lat="43.75485" lon="3.71903">
        <ele>245</ele>
        <time>2019-11-01T21:20:54+01:00</time>
      </trkpt>
      <trkpt lat="43.75474" lon="3.71916">
        <ele>245</ele>
        <time>2019-11-01T21:20:59+01:00</time>
      </trkpt>
      <trkpt lat="43.7542" lon="3.71939">
        <ele>245</ele>
        <time>2019-11-01T21:21:04+01:00</time>
      </trkpt>
      <trkpt lat="43.75421" lon="3.71913">
        <ele>245</ele>
        <time>2019-11-01T21:21:09+01:00</time>
      </trkpt>
      <trkpt lat="43.75423" lon="3.71895">
        <ele>246</ele>
        <time>2019-11-01T21:21:14+01:00</time>
      </trkpt>
      <trkpt lat="43.75432" lon="3.71867">
        <ele>247</ele>
        <time>2019-11-01T21:21:19+01:00</time>
      </trkpt>
      <trkpt lat="43.75438" lon="3.71842">
        <ele>248</ele>
        <time>2019-11-01T21:21:24+01:00</time>
      </trkpt>
      <trkpt lat="43.75444" lon="3.71806">
        <ele>250</ele>
        <time>2019-11-01T21:21:29+01:00</time>
      </trkpt>
      <trkpt lat="43.75451" lon="3.71763">
        <ele>250</ele>
        <time>2019-11-01T21:21:34+01:00</time>
      </trkpt>
      <trkpt lat="43.75453" lon="3.71749">
        <ele>250</ele>
        <time>2019-11-01T21:21:39+01:00</time>
      </trkpt>
      <trkpt lat="43.75449" lon="3.71741">
        <ele>250</ele>
        <time>2019-11-01T21:21:44+01:00</time>
      </trkpt>
      <trkpt lat="43.75434" lon="3.7174">
        <ele>250</ele>
        <time>2019-11-01T21:21:49+01:00</time>
      </trkpt>
      <trkpt lat="43.75418" lon="3.71742">
        <ele>250</ele>
        <time>2019-11-01T21:21:54+01:00</time>
      </trkpt>
      <trkpt lat="43.75411" lon="3.71754">
        <ele>250</ele>
        <time>2019-11-01T21:21:59+01:00</time>
      </trkpt>
      <trkpt lat="43.75375" lon="3.71772">
        <ele>250</ele>
        <time>2019-11-01T21:22:04+01:00</time>
      </trkpt>
      <trkpt lat="43.7533" lon="3.71783">
        <ele>250</ele>
        <time>2019-11-01T21:22:09+01:00</time>
      </trkpt>
      <trkpt lat="43.75228" lon="3.71752">
        <ele>250</ele>
        <time>2019-11-01T21:22:14+01:00</time>
      </trkpt>
      <trkpt lat="43.75226" lon="3.71742">
        <ele>250</ele>
        <time>2019-11-01T21:22:19+01:00</time>
      </trkpt>
      <trkpt lat="43.75216" lon="3.71743">
        <ele>250</ele>
        <time>2019-11-01T21:22:24+01:00</time>
      </trkpt>
      <trkpt lat="43.75201" lon="3.71735">
        <ele>249</ele>
        <time>2019-11-01T21:22:29+01:00</time>
      </trkpt>
      <trkpt lat="43.75193" lon="3.71735">
        <ele>249</ele>
        <time>2019-11-01T21:22:34+01:00</time>
      </trkpt>
      <trkpt lat="43.75184" lon="3.71733">
        <ele>248</ele>
        <time>2019-11-01T21:22:39+01:00</time>
      </trkpt>
      <trkpt lat="43.75173" lon="3.71729">
        <ele>247</ele>
        <time>2019-11-01T21:22:44+01:00</time>
      </trkpt>
      <trkpt lat="43.7515" lon="3.71727">
        <ele>246</ele>
        <time>2019-11-01T21:22:49+01:00</time>
      </trkpt>
      <trkpt lat="43.75141" lon="3.71727">
        <ele>245</ele>
        <time>2019-11-01T21:22:54+01:00</time>
      </trkpt>
      <trkpt lat="43.75129" lon="3.71725">
        <ele>244</ele>
        <time>2019-11-01T21:22:59+01:00</time>
      </trkpt>
      <trkpt lat="43.7512" lon="3.71726">
        <ele>244</ele>
        <time>2019-11-01T21:23:04+01:00</time>
      </trkpt>
    </trkseg>
  </trk>
</gpx>